Time;durP1;ratioP1;P1;durP2;ratioP2;P2;SDS_P1;SDS_P2;PMS_P1;PMS_P2;Temp;Humidity;BMP_temperature;BMP_pressure;BME280_temperature;BME280_humidity;BME280_pressure;Samples;Min_cycle;Max_cycle;Signal;HPM_P1;HPM_P2
2021/11/01 00:00:13;;;;;;;45.67;32.70;;;10.30;99.90;;;;;;2104115;28;20032;-74
2021/11/01 00:01:14;;;;;;;50.38;34.47;;;10.40;99.90;;;;;;2103572;28;20028;-74
2021/11/01 00:02:15;;;;;;;46.90;32.70;;;10.30;99.90;;;;;;2106165;28;20538;-74
2021/11/01 00:03:16;;;;;;;50.22;34.20;;;10.30;99.90;;;;;;2107125;28;20067;-76
2021/11/01 00:04:16;;;;;;;47.00;33.22;;;10.30;99.90;;;;;;2106311;28;20016;-74
2021/11/01 00:05:18;;;;;;;46.95;33.58;;;10.30;99.90;;;;;;2106258;28;20094;-74
2021/11/01 00:06:19;;;;;;;45.85;32.60;;;10.30;99.90;;;;;;2105933;28;20030;-74
2021/11/01 00:07:19;;;;;;;46.95;33.13;;;10.30;99.90;;;;;;2105815;28;20661;-74
2021/11/01 00:08:20;;;;;;;50.17;34.17;;;10.30;99.90;;;;;;2106636;28;20032;-74
2021/11/01 00:09:21;;;;;;;47.05;33.47;;;10.30;99.90;;;;;;2105954;28;20071;-74
2021/11/01 00:10:22;;;;;;;45.95;32.75;;;10.30;99.90;;;;;;2106649;28;20042;-74
2021/11/01 00:11:23;;;;;;;51.28;34.15;;;10.30;99.90;;;;;;2107213;28;20036;-73
2021/11/01 00:12:28;;;;;;;46.33;32.92;;;10.30;99.90;;;;;;2106822;28;20028;-73
2021/11/01 00:13:29;;;;;;;50.13;33.67;;;10.30;99.90;;;;;;2098963;28;20500;-74
2021/11/01 00:14:30;;;;;;;46.83;33.15;;;10.30;99.90;;;;;;2106899;28;20024;-75
2021/11/01 00:15:31;;;;;;;49.58;34.70;;;10.30;99.90;;;;;;2107691;28;20089;-74
2021/11/01 00:16:33;;;;;;;47.35;33.22;;;10.30;99.90;;;;;;2107129;28;20023;-74
2021/11/01 00:17:34;;;;;;;45.72;32.40;;;10.30;99.90;;;;;;2106180;28;20073;-74
2021/11/01 00:18:34;;;;;;;48.10;33.78;;;10.30;99.90;;;;;;2105922;28;20705;-74
2021/11/01 00:19:35;;;;;;;49.05;34.03;;;10.20;99.90;;;;;;2106141;28;20040;-75
2021/11/01 00:20:36;;;;;;;47.72;32.70;;;10.30;99.90;;;;;;2106269;28;20024;-75
2021/11/01 00:21:36;;;;;;;46.03;32.80;;;10.30;99.90;;;;;;2106031;28;20047;-73
2021/11/01 00:22:39;;;;;;;48.45;33.58;;;10.20;99.90;;;;;;2106839;28;20024;-74
2021/11/01 00:23:40;;;;;;;46.92;33.80;;;10.20;99.90;;;;;;2107389;28;20027;-75
2021/11/01 00:24:40;;;;;;;44.50;33.05;;;10.20;99.90;;;;;;2099188;28;20037;-74
2021/11/01 00:25:41;;;;;;;46.28;33.35;;;10.20;99.90;;;;;;2098689;28;20458;-73
2021/11/01 00:26:42;;;;;;;46.38;32.42;;;10.20;99.90;;;;;;2106527;28;20081;-72
2021/11/01 00:27:42;;;;;;;44.72;32.38;;;10.20;99.90;;;;;;2106461;28;20024;-74
2021/11/01 00:28:44;;;;;;;46.42;33.33;;;10.10;99.90;;;;;;2105829;28;20025;-74
2021/11/01 00:29:45;;;;;;;48.30;34.63;;;10.10;99.90;;;;;;2105463;28;20108;-74
2021/11/01 00:30:47;;;;;;;48.78;34.03;;;10.10;99.90;;;;;;2105662;28;20040;-73
2021/11/01 00:31:47;;;;;;;48.75;33.25;;;10.20;99.90;;;;;;2105551;28;20039;-75
2021/11/01 00:32:48;;;;;;;50.28;34.53;;;10.20;99.90;;;;;;2106494;28;20039;-74
2021/11/01 00:33:49;;;;;;;46.50;32.70;;;10.20;99.90;;;;;;2105834;28;20391;-74
2021/11/01 00:34:49;;;;;;;47.13;32.67;;;10.20;99.90;;;;;;2105974;28;20055;-74
2021/11/01 00:35:50;;;;;;;45.95;33.08;;;10.20;99.90;;;;;;2106372;28;20115;-74
2021/11/01 00:36:53;;;;;;;44.75;32.92;;;10.10;99.90;;;;;;2106583;28;20032;-73
2021/11/01 00:37:54;;;;;;;50.35;34.15;;;10.20;99.90;;;;;;2106587;28;20040;-74
2021/11/01 00:38:55;;;;;;;43.28;31.70;;;10.20;99.90;;;;;;2106542;28;20060;-74
2021/11/01 00:39:59;;;;;;;48.45;33.53;;;10.10;99.90;;;;;;2105828;28;20020;-73
2021/11/01 00:41:00;;;;;;;48.70;33.30;;;10.20;99.90;;;;;;2106125;28;20161;-73
2021/11/01 00:42:02;;;;;;;46.42;33.35;;;10.20;99.90;;;;;;2105585;28;20070;-74
2021/11/01 00:43:03;;;;;;;46.63;33.10;;;10.20;99.90;;;;;;2105950;28;20032;-74
2021/11/01 00:44:04;;;;;;;47.33;33.67;;;10.20;99.90;;;;;;2106490;28;20038;-74
2021/11/01 00:45:05;;;;;;;46.00;32.42;;;10.20;99.90;;;;;;2105605;28;20065;-74
2021/11/01 00:46:06;;;;;;;47.72;33.63;;;10.20;99.90;;;;;;2105894;28;20028;-74
2021/11/01 00:47:07;;;;;;;47.63;34.25;;;10.20;99.90;;;;;;2105854;28;20111;-74
2021/11/01 00:48:07;;;;;;;43.40;31.88;;;10.20;99.90;;;;;;2105799;28;20043;-73
2021/11/01 00:49:08;;;;;;;49.22;34.38;;;10.20;99.90;;;;;;2106603;28;20036;-71
2021/11/01 00:50:09;;;;;;;47.58;33.97;;;10.20;99.90;;;;;;2106149;28;20031;-72
2021/11/01 00:51:10;;;;;;;49.83;33.50;;;10.30;99.90;;;;;;2106093;28;20028;-74
2021/11/01 00:52:11;;;;;;;46.78;32.53;;;10.20;99.90;;;;;;2106430;28;20091;-74
2021/11/01 00:53:12;;;;;;;45.92;32.00;;;10.20;99.90;;;;;;2106399;28;20112;-73
2021/11/01 00:54:14;;;;;;;47.15;33.65;;;10.20;99.90;;;;;;2106872;28;20111;-74
2021/11/01 00:55:33;;;;;;;50.03;34.28;;;10.20;99.90;;;;;;2107301;28;20032;-73
2021/11/01 00:56:34;;;;;;;46.75;33.58;;;10.20;99.90;;;;;;2107481;28;20020;-74
2021/11/01 00:57:41;;;;;;;45.72;32.75;;;10.20;99.90;;;;;;2107443;28;20030;-74
2021/11/01 00:58:42;;;;;;;51.30;34.53;;;10.20;99.90;;;;;;2107314;28;20483;-74
2021/11/01 00:59:43;;;;;;;45.80;32.78;;;10.20;99.90;;;;;;2106833;28;20402;-75
2021/11/01 01:00:44;;;;;;;49.38;34.45;;;10.20;99.90;;;;;;2106475;28;20032;-72
2021/11/01 01:01:45;;;;;;;49.13;34.05;;;10.20;99.90;;;;;;2097971;28;20035;-74
2021/11/01 01:02:46;;;;;;;46.08;32.78;;;10.20;99.90;;;;;;2090591;28;20033;-74
2021/11/01 01:03:49;;;;;;;48.13;34.72;;;10.20;99.90;;;;;;2090526;28;20039;-74
2021/11/01 01:04:50;;;;;;;45.65;32.63;;;10.20;99.90;;;;;;2107754;28;20058;-72
2021/11/01 01:05:52;;;;;;;49.80;34.05;;;10.20;99.90;;;;;;2106971;28;20051;-74
2021/11/01 01:06:53;;;;;;;48.38;33.75;;;10.20;99.90;;;;;;2101658;28;20817;-75
2021/11/01 01:07:54;;;;;;;48.00;33.05;;;10.20;99.90;;;;;;2099887;28;20105;-75
2021/11/01 01:08:55;;;;;;;45.53;33.13;;;10.20;99.90;;;;;;2099386;28;20111;-74
2021/11/01 01:09:55;;;;;;;45.92;32.30;;;10.10;99.90;;;;;;2098188;28;20044;-74
2021/11/01 01:10:56;;;;;;;49.65;34.78;;;10.10;99.90;;;;;;2106802;28;20463;-74
2021/11/01 01:11:57;;;;;;;50.65;34.13;;;10.10;99.90;;;;;;2106380;28;20519;-74
2021/11/01 01:12:57;;;;;;;48.03;33.40;;;10.10;99.90;;;;;;2105977;28;20566;-74
2021/11/01 01:14:03;;;;;;;48.90;34.28;;;10.10;99.90;;;;;;2106513;28;20420;-74
2021/11/01 01:15:12;;;;;;;47.28;33.17;;;10.10;99.90;;;;;;2106513;28;20119;-75
2021/11/01 01:16:24;;;;;;;49.63;34.28;;;10.10;99.90;;;;;;2098660;28;20551;-74
2021/11/01 01:17:28;;;;;;;44.17;32.47;;;10.10;99.90;;;;;;2099555;28;20024;-75
2021/11/01 01:18:36;;;;;;;48.15;34.75;;;10.10;99.90;;;;;;2105571;28;20036;-74
2021/11/01 01:22:58;;;;;;;48.03;33.92;;;10.10;99.90;;;;;;2055882;28;20035;-73
2021/11/01 01:24:09;;;;;;;46.75;32.65;;;10.10;99.90;;;;;;2056084;28;20045;-74
2021/11/01 01:26:19;;;;;;;44.05;31.33;;;10.00;99.90;;;;;;2055760;28;20042;-73
2021/11/01 01:27:20;;;;;;;46.80;34.00;;;10.00;99.90;;;;;;2063218;28;20050;-74
2021/11/01 01:28:22;;;;;;;47.75;34.25;;;10.00;99.90;;;;;;2078646;28;20069;-75
2021/11/01 01:29:23;;;;;;;46.83;34.30;;;10.00;99.90;;;;;;2096961;28;20029;-74
2021/11/01 01:30:25;;;;;;;47.88;33.72;;;10.00;99.90;;;;;;2097434;28;20032;-73
2021/11/01 01:31:26;;;;;;;50.53;33.95;;;10.00;99.90;;;;;;2106034;28;20364;-74
2021/11/01 01:32:27;;;;;;;47.53;34.15;;;10.00;99.90;;;;;;2105675;28;20047;-74
2021/11/01 01:33:28;;;;;;;47.45;34.00;;;10.00;99.90;;;;;;2097249;28;20055;-74
2021/11/01 01:34:29;;;;;;;49.15;34.70;;;10.00;99.90;;;;;;2097575;28;20603;-75
2021/11/01 01:35:34;;;;;;;47.15;34.22;;;10.00;99.90;;;;;;2097214;28;20028;-74
2021/11/01 01:36:34;;;;;;;47.92;32.72;;;10.10;99.90;;;;;;2090046;28;20139;-72
2021/11/01 01:37:38;;;;;;;47.65;33.80;;;10.10;99.90;;;;;;2097103;28;20045;-73
2021/11/01 01:38:42;;;;;;;46.55;33.40;;;10.10;99.90;;;;;;2105547;28;20028;-72
2021/11/01 01:39:42;;;;;;;46.45;33.40;;;10.10;99.90;;;;;;2104740;28;20028;-74
2021/11/01 01:40:43;;;;;;;48.50;34.33;;;10.00;99.90;;;;;;2105345;28;20085;-74
2021/11/01 01:41:46;;;;;;;48.47;34.55;;;10.00;99.90;;;;;;2105083;28;20531;-74
2021/11/01 01:42:47;;;;;;;51.22;34.65;;;10.00;99.90;;;;;;2105998;28;20431;-73
2021/11/01 01:43:52;;;;;;;48.22;34.72;;;10.00;99.90;;;;;;2105980;28;20114;-74
2021/11/01 01:44:53;;;;;;;46.75;34.08;;;10.00;99.90;;;;;;2106073;28;20016;-74
2021/11/01 01:45:53;;;;;;;50.20;34.20;;;10.00;99.90;;;;;;2105107;28;20395;-75
2021/11/01 01:46:54;;;;;;;49.50;34.22;;;10.00;99.90;;;;;;2105392;28;20035;-74
2021/11/01 01:47:55;;;;;;;47.35;33.78;;;10.00;99.90;;;;;;2105221;28;20048;-73
2021/11/01 01:48:56;;;;;;;52.28;35.20;;;10.00;99.90;;;;;;2105316;28;20039;-74
2021/11/01 01:49:57;;;;;;;50.13;35.00;;;10.10;99.90;;;;;;2104815;28;20035;-73
2021/11/01 01:50:58;;;;;;;51.67;35.70;;;10.10;99.90;;;;;;2105856;28;20024;-74
2021/11/01 01:51:59;;;;;;;51.05;36.28;;;10.00;99.90;;;;;;2105017;28;20035;-74
2021/11/01 01:53:00;;;;;;;51.08;35.08;;;10.00;99.90;;;;;;2105180;28;20039;-73
2021/11/01 01:54:02;;;;;;;48.75;34.40;;;10.10;99.90;;;;;;2105218;28;20028;-73
2021/11/01 01:55:04;;;;;;;48.95;34.75;;;10.00;99.90;;;;;;2105064;28;20028;-74
2021/11/01 01:56:05;;;;;;;52.63;35.70;;;10.00;99.90;;;;;;2105143;28;20031;-73
2021/11/01 01:57:06;;;;;;;50.03;36.00;;;10.00;99.90;;;;;;2105207;28;20130;-74
2021/11/01 01:58:07;;;;;;;49.75;35.85;;;10.10;99.90;;;;;;2105116;28;20110;-73
2021/11/01 01:59:11;;;;;;;50.50;34.17;;;10.10;99.90;;;;;;2105164;28;20119;-73
2021/11/01 02:01:47;;;;;;;47.65;34.28;;;10.00;99.90;;;;;;2105467;28;20102;-75
2021/11/01 02:02:49;;;;;;;48.03;34.85;;;10.00;99.90;;;;;;2105782;28;20117;-75
2021/11/01 02:03:52;;;;;;;48.00;33.25;;;10.00;99.90;;;;;;2105111;28;20032;-74
2021/11/01 02:04:52;;;;;;;51.08;36.20;;;10.00;99.90;;;;;;2097210;28;20565;-75
2021/11/01 02:06:12;;;;;;;50.25;36.00;;;10.00;99.90;;;;;;2105231;28;20051;-74
2021/11/01 02:07:26;;;;;;;50.80;34.83;;;10.00;99.90;;;;;;2105800;28;20024;-74
2021/11/01 02:08:32;;;;;;;52.22;35.88;;;10.00;99.90;;;;;;2105665;28;20471;-74
2021/11/01 02:09:52;;;;;;;52.00;35.05;;;10.00;99.90;;;;;;2105119;28;20430;-74
2021/11/01 02:11:08;;;;;;;48.60;33.65;;;10.00;99.90;;;;;;2105725;28;20024;-74
2021/11/01 02:12:19;;;;;;;49.95;35.22;;;9.90;99.90;;;;;;2104823;28;20403;-74
2021/11/01 02:13:26;;;;;;;51.28;34.53;;;9.90;99.90;;;;;;2105286;28;20066;-74
2021/11/01 02:14:39;;;;;;;50.45;34.67;;;9.90;99.90;;;;;;2105235;28;20032;-74
2021/11/01 02:15:44;;;;;;;51.45;34.47;;;9.90;99.90;;;;;;2105251;28;20028;-73
2021/11/01 02:16:49;;;;;;;50.85;35.83;;;9.90;99.90;;;;;;2104803;28;20124;-74
2021/11/01 02:17:53;;;;;;;50.92;35.45;;;9.90;99.90;;;;;;2105191;28;20027;-74
2021/11/01 02:18:55;;;;;;;54.05;36.58;;;9.90;99.90;;;;;;2105626;28;20114;-73
2021/11/01 02:20:03;;;;;;;50.95;35.05;;;9.90;99.90;;;;;;2104606;28;20028;-74
2021/11/01 02:21:18;;;;;;;54.67;37.08;;;9.90;99.90;;;;;;2105096;28;20028;-74
2021/11/01 02:22:53;;;;;;;53.50;35.30;;;9.90;99.90;;;;;;2105003;28;20050;-73
2021/11/01 02:24:14;;;;;;;54.30;36.42;;;9.90;99.90;;;;;;2101042;28;20416;-74
2021/11/01 02:25:36;;;;;;;52.22;35.55;;;9.90;99.90;;;;;;2099844;28;20063;-75
2021/11/01 02:26:38;;;;;;;51.63;35.88;;;9.90;99.90;;;;;;2105473;28;20028;-75
2021/11/01 02:27:40;;;;;;;49.70;34.20;;;9.90;99.90;;;;;;2105515;28;20118;-75
2021/11/01 02:28:42;;;;;;;53.00;35.95;;;9.80;99.90;;;;;;2105067;28;20118;-74
2021/11/01 02:29:46;;;;;;;53.75;36.88;;;9.80;99.90;;;;;;2105166;28;20399;-74
2021/11/01 02:30:50;;;;;;;51.17;36.53;;;9.80;99.90;;;;;;2105628;28;20028;-75
2021/11/01 02:31:51;;;;;;;49.63;35.05;;;9.80;99.90;;;;;;2105466;28;20046;-74
2021/11/01 02:32:52;;;;;;;50.63;36.03;;;9.80;99.90;;;;;;2105643;28;20028;-73
2021/11/01 02:33:53;;;;;;;52.25;36.47;;;9.80;99.90;;;;;;2105552;28;20024;-74
2021/11/01 02:34:57;;;;;;;52.60;36.22;;;9.90;99.90;;;;;;2105042;28;20032;-74
2021/11/01 02:35:58;;;;;;;53.58;36.72;;;9.90;99.90;;;;;;2105085;28;20028;-73
2021/11/01 02:37:00;;;;;;;51.63;36.30;;;9.90;99.90;;;;;;2096396;28;20048;-73
2021/11/01 02:38:04;;;;;;;53.10;36.78;;;9.90;99.90;;;;;;2096592;28;20482;-72
2021/11/01 02:39:05;;;;;;;48.25;35.08;;;9.90;99.90;;;;;;2104899;28;20020;-74
2021/11/01 02:40:09;;;;;;;51.95;36.90;;;9.80;99.90;;;;;;2104213;28;20043;-73
2021/11/01 02:41:24;;;;;;;51.55;36.80;;;9.90;99.90;;;;;;2096772;28;20028;-73
2021/11/01 02:42:27;;;;;;;52.88;36.35;;;9.90;99.90;;;;;;2105249;28;20769;-74
2021/11/01 02:43:28;;;;;;;53.58;36.53;;;9.90;99.90;;;;;;2105433;28;20024;-75
2021/11/01 02:44:28;;;;;;;51.50;36.88;;;9.90;99.90;;;;;;2104941;28;20020;-73
2021/11/01 02:45:29;;;;;;;51.70;36.05;;;9.90;99.90;;;;;;2104749;28;20179;-72
2021/11/01 02:46:30;;;;;;;52.30;35.85;;;9.90;99.90;;;;;;2104930;28;20020;-75
2021/11/01 02:47:32;;;;;;;51.85;35.42;;;9.90;99.90;;;;;;2105462;28;20020;-74
2021/11/01 02:48:32;;;;;;;52.20;36.42;;;9.90;99.90;;;;;;2105475;28;20032;-72
2021/11/01 02:49:33;;;;;;;53.30;37.22;;;9.90;99.90;;;;;;2104381;28;20121;-74
2021/11/01 02:50:34;;;;;;;49.22;35.30;;;9.90;99.90;;;;;;2096519;28;20032;-75
2021/11/01 02:51:35;;;;;;;52.65;36.30;;;9.90;99.90;;;;;;2096093;28;20123;-76
2021/11/01 02:52:36;;;;;;;50.72;36.33;;;9.80;99.90;;;;;;2104803;28;20036;-76
2021/11/01 02:53:37;;;;;;;54.08;36.88;;;9.90;99.90;;;;;;2105423;28;20027;-75
2021/11/01 02:54:38;;;;;;;51.20;36.47;;;9.80;99.90;;;;;;2104739;28;20031;-75
2021/11/01 02:55:38;;;;;;;51.55;36.00;;;9.90;99.90;;;;;;2104864;28;20029;-77
2021/11/01 02:56:40;;;;;;;51.47;36.92;;;9.80;99.90;;;;;;2104750;28;20028;-73
2021/11/01 02:57:42;;;;;;;53.17;36.95;;;9.80;99.90;;;;;;2104774;28;20073;-74
2021/11/01 02:58:44;;;;;;;51.17;36.75;;;9.80;99.90;;;;;;2105294;28;20028;-74
2021/11/01 02:59:46;;;;;;;54.33;37.83;;;9.80;99.90;;;;;;2104872;28;20035;-74
2021/11/01 03:00:47;;;;;;;55.00;37.92;;;9.80;99.90;;;;;;2104762;28;20089;-74
2021/11/01 03:01:47;;;;;;;52.50;36.85;;;9.80;99.90;;;;;;2104630;28;20027;-74
2021/11/01 03:02:48;;;;;;;51.63;36.35;;;9.80;99.90;;;;;;2104762;28;20032;-74
2021/11/01 03:03:49;;;;;;;50.50;36.03;;;9.80;99.90;;;;;;2104512;28;20817;-74
2021/11/01 03:04:50;;;;;;;54.20;36.20;;;9.80;99.90;;;;;;2104864;28;20512;-75
2021/11/01 03:05:51;;;;;;;52.47;37.30;;;9.80;99.90;;;;;;2096390;28;20029;-74
2021/11/01 03:06:52;;;;;;;52.08;36.90;;;9.80;99.90;;;;;;2104884;28;20087;-74
2021/11/01 03:07:56;;;;;;;53.20;37.05;;;9.80;99.90;;;;;;2105436;28;20035;-74
2021/11/01 03:08:58;;;;;;;54.75;35.80;;;9.80;99.90;;;;;;2104708;28;20024;-74
2021/11/01 03:09:59;;;;;;;52.30;35.92;;;9.80;99.90;;;;;;2103997;28;20487;-74
2021/11/01 03:11:02;;;;;;;49.97;34.97;;;9.80;99.90;;;;;;2104418;28;20040;-74
2021/11/01 03:12:07;;;;;;;55.22;37.08;;;9.70;99.90;;;;;;2104497;28;20020;-74
2021/11/01 03:13:08;;;;;;;52.67;37.25;;;9.70;99.90;;;;;;2104811;28;20036;-74
2021/11/01 03:14:10;;;;;;;52.80;37.72;;;9.80;99.90;;;;;;2104807;28;20032;-74
2021/11/01 03:15:20;;;;;;;52.67;36.78;;;9.70;99.90;;;;;;2096612;28;20868;-75
2021/11/01 03:16:22;;;;;;;53.08;37.92;;;9.70;99.90;;;;;;2104914;28;20036;-75
2021/11/01 03:17:24;;;;;;;52.25;37.03;;;9.80;99.90;;;;;;2104737;28;20070;-75
2021/11/01 03:18:32;;;;;;;51.85;36.70;;;9.80;99.90;;;;;;2096631;28;20028;-74
2021/11/01 03:19:42;;;;;;;50.72;35.38;;;9.80;99.90;;;;;;2104558;28;20035;-73
2021/11/01 03:20:47;;;;;;;50.08;35.35;;;9.80;99.90;;;;;;2104861;28;20059;-75
2021/11/01 03:21:49;;;;;;;55.72;37.78;;;9.70;99.90;;;;;;2104580;28;20039;-75
2021/11/01 03:23:10;;;;;;;54.25;37.30;;;9.80;99.90;;;;;;2105402;28;20032;-75
2021/11/01 03:24:13;;;;;;;50.55;35.25;;;9.80;99.90;;;;;;2104693;28;20156;-75
2021/11/01 03:25:23;;;;;;;52.70;36.05;;;9.80;99.90;;;;;;2104732;28;20055;-75
2021/11/01 03:26:28;;;;;;;52.60;36.78;;;9.80;99.90;;;;;;2104750;28;20077;-75
2021/11/01 03:27:29;;;;;;;53.30;37.58;;;9.80;99.90;;;;;;2104881;28;20024;-74
2021/11/01 03:28:32;;;;;;;50.97;37.00;;;9.80;99.90;;;;;;2105380;28;20483;-75
2021/11/01 03:29:35;;;;;;;52.75;37.35;;;9.80;99.90;;;;;;2104856;28;20047;-75
2021/11/01 03:30:38;;;;;;;56.95;37.72;;;9.80;99.90;;;;;;2105622;28;20024;-74
2021/11/01 03:31:41;;;;;;;52.10;37.22;;;9.80;99.90;;;;;;2105233;28;20139;-73
2021/11/01 03:32:43;;;;;;;53.25;37.10;;;9.80;99.90;;;;;;2105535;28;20043;-75
2021/11/01 03:33:44;;;;;;;54.38;37.47;;;9.80;99.90;;;;;;2104867;28;20058;-77
2021/11/01 03:34:45;;;;;;;56.63;37.95;;;9.80;99.90;;;;;;2104797;28;20028;-75
2021/11/01 03:35:47;;;;;;;55.95;38.38;;;9.80;99.90;;;;;;2105546;28;20036;-75
2021/11/01 03:36:50;;;;;;;53.80;38.15;;;9.80;99.90;;;;;;2106614;28;20061;-75
2021/11/01 03:37:53;;;;;;;54.00;37.45;;;9.80;99.90;;;;;;2106525;28;20028;-76
2021/11/01 03:38:56;;;;;;;54.15;37.83;;;9.70;99.90;;;;;;2106905;28;20040;-76
2021/11/01 03:39:59;;;;;;;55.08;37.53;;;9.70;99.90;;;;;;2106133;28;20028;-74
2021/11/01 03:41:06;;;;;;;56.22;36.97;;;9.80;99.90;;;;;;2107213;28;20042;-76
2021/11/01 03:42:09;;;;;;;51.40;36.90;;;9.80;99.90;;;;;;2106866;28;20536;-76
2021/11/01 03:43:10;;;;;;;52.33;35.95;;;9.70;99.90;;;;;;2099024;28;20067;-75
2021/11/01 03:44:18;;;;;;;53.15;36.72;;;9.70;99.90;;;;;;2106797;28;20032;-75
2021/11/01 03:45:20;;;;;;;55.30;38.25;;;9.80;99.90;;;;;;2099292;28;20032;-76
2021/11/01 03:46:29;;;;;;;57.47;37.50;;;9.70;99.90;;;;;;2098550;28;20113;-76
2021/11/01 03:47:38;;;;;;;53.95;37.55;;;9.80;99.90;;;;;;2090798;28;20040;-76
2021/11/01 03:48:43;;;;;;;53.63;36.22;;;9.70;99.90;;;;;;2098968;28;20024;-75
2021/11/01 03:49:54;;;;;;;55.40;38.40;;;9.70;99.90;;;;;;2105774;28;20031;-74
2021/11/01 03:51:02;;;;;;;54.90;38.92;;;9.70;99.90;;;;;;2106322;28;20638;-73
2021/11/01 03:52:14;;;;;;;53.35;36.90;;;9.70;99.90;;;;;;2106051;28;20501;-73
2021/11/01 03:53:15;;;;;;;54.13;37.28;;;9.70;99.90;;;;;;2106170;28;20040;-75
2021/11/01 03:54:18;;;;;;;49.03;35.63;;;9.60;99.90;;;;;;2106148;28;20062;-74
2021/11/01 03:55:20;;;;;;;55.47;38.17;;;9.60;99.90;;;;;;2106813;28;20032;-75
2021/11/01 03:56:22;;;;;;;54.53;38.83;;;9.60;99.90;;;;;;2097730;28;20039;-73
2021/11/01 03:57:23;;;;;;;50.90;36.53;;;9.60;99.90;;;;;;2097918;28;20032;-74
2021/11/01 03:58:25;;;;;;;56.17;38.60;;;9.50;99.90;;;;;;2106081;28;20027;-74
2021/11/01 03:59:27;;;;;;;55.60;38.95;;;9.50;99.90;;;;;;2105504;28;20043;-74
2021/11/01 04:00:31;;;;;;;55.08;39.13;;;9.50;99.90;;;;;;2106105;28;20504;-74
2021/11/01 04:01:37;;;;;;;52.88;37.47;;;9.60;99.90;;;;;;2106572;28;20220;-75
2021/11/01 04:02:38;;;;;;;57.55;39.67;;;9.50;99.90;;;;;;2106253;28;20035;-75
2021/11/01 04:03:38;;;;;;;53.38;37.30;;;9.60;99.90;;;;;;2106213;28;20144;-75
2021/11/01 04:04:43;;;;;;;52.78;36.80;;;9.50;99.90;;;;;;2106372;28;20016;-75
2021/11/01 04:05:43;;;;;;;50.75;35.58;;;9.50;99.90;;;;;;2107221;28;20415;-75
2021/11/01 04:06:45;;;;;;;55.15;39.10;;;9.50;99.90;;;;;;2108394;28;20020;-75
2021/11/01 04:07:46;;;;;;;55.40;38.35;;;9.50;99.90;;;;;;2107514;28;20032;-74
2021/11/01 04:08:47;;;;;;;57.85;38.60;;;9.50;99.90;;;;;;2107714;28;20502;-72
2021/11/01 04:09:48;;;;;;;57.85;39.00;;;9.50;99.90;;;;;;2107692;28;20028;-73
2021/11/01 04:10:50;;;;;;;57.13;38.88;;;9.50;99.90;;;;;;2109090;28;20032;-77
2021/11/01 04:11:51;;;;;;;58.05;39.42;;;9.50;99.90;;;;;;2106564;28;20032;-73
2021/11/01 04:12:52;;;;;;;58.05;39.92;;;9.50;99.90;;;;;;2106087;28;20036;-73
2021/11/01 04:14:00;;;;;;;55.80;39.17;;;9.50;99.90;;;;;;2106163;28;20085;-73
2021/11/01 04:15:06;;;;;;;57.00;38.67;;;9.50;99.90;;;;;;2106220;28;20043;-73
2021/11/01 04:16:12;;;;;;;57.35;39.42;;;9.50;99.90;;;;;;2106207;28;20046;-73
2021/11/01 04:17:24;;;;;;;57.15;39.15;;;9.50;99.90;;;;;;2106062;28;20479;-73
2021/11/01 04:18:36;;;;;;;56.47;39.05;;;9.50;99.90;;;;;;2106239;28;20103;-74
2021/11/01 04:19:48;;;;;;;56.20;39.75;;;9.60;99.90;;;;;;2097104;28;20059;-75
2021/11/01 04:20:58;;;;;;;55.10;38.83;;;9.60;99.90;;;;;;2099324;28;20028;-74
2021/11/01 04:22:00;;;;;;;58.60;39.92;;;9.60;99.90;;;;;;2105823;28;20027;-74
2021/11/01 04:23:04;;;;;;;60.28;40.17;;;9.50;99.90;;;;;;2106512;28;20459;-74
2021/11/01 04:24:06;;;;;;;56.83;39.35;;;9.60;99.90;;;;;;2106565;28;20048;-74
2021/11/01 04:25:08;;;;;;;60.83;39.70;;;9.50;99.90;;;;;;2105882;28;20020;-75
2021/11/01 04:26:09;;;;;;;56.10;39.40;;;9.60;99.90;;;;;;2097726;28;20097;-74
2021/11/01 04:27:10;;;;;;;56.20;39.45;;;9.60;99.90;;;;;;2089344;28;20061;-75
2021/11/01 04:28:10;;;;;;;55.85;39.00;;;9.60;99.90;;;;;;2089179;28;20120;-75
2021/11/01 04:29:12;;;;;;;57.42;39.75;;;9.50;99.90;;;;;;2097182;28;20056;-75
2021/11/01 04:30:13;;;;;;;57.88;39.90;;;9.60;99.90;;;;;;2105994;28;20551;-76
2021/11/01 04:31:21;;;;;;;57.67;39.13;;;9.50;99.90;;;;;;2097511;28;20094;-76
2021/11/01 04:32:44;;;;;;;61.03;40.63;;;9.50;99.90;;;;;;2106028;28;20081;-76
2021/11/01 04:33:43;;;;;;;;;;;9.50;99.90;;;;;;2106716;28;20079;-75
2021/11/01 04:34:50;;;;;;;57.95;40.15;;;9.50;99.90;;;;;;2106692;28;20458;-76
2021/11/01 04:35:50;;;;;;;56.35;39.10;;;9.50;99.90;;;;;;2106387;28;20036;-76
2021/11/01 04:36:53;;;;;;;54.10;37.38;;;9.50;99.90;;;;;;2106602;28;20110;-75
2021/11/01 04:53:02;;;;;;;59.08;40.30;;;9.40;99.90;;;;;;2106037;28;20060;-75
2021/11/01 04:54:04;;;;;;;61.05;40.10;;;9.40;99.90;;;;;;2105689;28;20024;-75
2021/11/01 04:55:08;;;;;;;65.03;40.70;;;9.30;99.90;;;;;;2105876;28;20558;-74
2021/11/01 04:56:17;;;;;;;60.03;41.15;;;9.30;99.90;;;;;;2098003;28;20031;-74
2021/11/01 04:57:19;;;;;;;60.03;39.67;;;9.40;99.90;;;;;;2105918;28;20177;-73
2021/11/01 04:58:19;;;;;;;58.65;40.03;;;9.40;99.90;;;;;;2106707;28;20024;-74
2021/11/01 04:59:22;;;;;;;57.00;39.55;;;9.40;99.90;;;;;;2106186;28;20024;-73
2021/11/01 05:00:23;;;;;;;56.38;39.40;;;9.40;99.90;;;;;;2106995;28;20016;-73
2021/11/01 05:01:40;;;;;;;58.60;40.33;;;9.40;99.90;;;;;;2105885;28;20020;-74
2021/11/01 05:02:49;;;;;;;58.47;39.80;;;9.40;99.90;;;;;;2106425;28;20020;-73
2021/11/01 05:03:53;;;;;;;61.40;41.40;;;9.40;99.90;;;;;;2107179;28;20024;-73
2021/11/01 05:04:54;;;;;;;60.72;41.10;;;9.40;99.90;;;;;;2106249;28;20032;-73
2021/11/01 05:05:54;;;;;;;58.53;40.20;;;9.40;99.90;;;;;;2106028;28;20024;-73
2021/11/01 05:07:06;;;;;;;58.97;40.25;;;9.30;99.90;;;;;;2106798;28;20028;-72
2021/11/01 05:08:07;;;;;;;59.72;39.95;;;9.30;99.90;;;;;;2106380;28;20020;-73
2021/11/01 05:09:12;;;;;;;58.75;39.58;;;9.30;99.90;;;;;;2105624;28;20024;-72
2021/11/01 05:10:22;;;;;;;60.45;40.85;;;9.40;99.90;;;;;;2105582;28;20024;-73
2021/11/01 05:12:40;;;;;;;61.08;40.97;;;9.30;99.90;;;;;;2105732;28;20081;-74
2021/11/01 05:13:41;;;;;;;57.80;39.78;;;9.30;99.90;;;;;;2106505;28;20549;-73
2021/11/01 05:14:55;;;;;;;60.78;41.53;;;9.30;99.90;;;;;;2106361;28;20157;-73
2021/11/01 05:16:10;;;;;;;60.05;40.85;;;9.30;99.90;;;;;;2106540;28;20490;-74
2021/11/01 05:17:55;;;;;;;60.08;41.33;;;9.40;99.90;;;;;;2106330;28;20073;-75
2021/11/01 05:19:39;;;;;;;59.83;40.70;;;9.40;99.90;;;;;;2105760;28;20024;-74
2021/11/01 05:20:45;;;;;;;55.15;39.05;;;9.40;99.90;;;;;;2106321;28;20012;-74
2021/11/01 05:23:13;;;;;;;58.33;39.88;;;9.30;99.90;;;;;;2105783;28;20115;-74
2021/11/01 05:24:22;;;;;;;59.10;40.20;;;9.30;99.90;;;;;;2106300;28;20039;-75
2021/11/01 05:25:32;;;;;;;62.03;41.78;;;9.30;99.90;;;;;;2106135;28;20024;-76
2021/11/01 05:28:02;;;;;;;64.47;43.17;;;9.30;99.90;;;;;;2106571;28;20028;-77
2021/11/01 05:29:05;;;;;;;64.47;42.42;;;9.30;99.90;;;;;;2106296;28;20788;-75
2021/11/01 05:30:12;;;;;;;57.72;40.10;;;9.30;99.90;;;;;;2105349;28;20032;-76
2021/11/01 05:31:22;;;;;;;56.40;39.67;;;9.30;99.90;;;;;;2105741;28;20028;-75
2021/11/01 05:32:28;;;;;;;61.03;41.65;;;9.30;99.90;;;;;;2105841;28;20028;-75
2021/11/01 05:33:50;;;;;;;81.80;52.00;;;9.30;99.90;;;;;;2098153;28;20040;-74
2021/11/01 05:34:50;;;;;;;80.88;50.35;;;9.30;99.90;;;;;;2105777;28;20032;-73
2021/11/01 05:35:51;;;;;;;68.45;45.50;;;9.30;99.90;;;;;;2106080;28;20028;-73
2021/11/01 05:36:52;;;;;;;71.50;47.83;;;9.30;99.90;;;;;;2106388;28;20031;-74
2021/11/01 05:37:52;;;;;;;68.13;45.58;;;9.30;99.90;;;;;;2105693;28;20028;-75
2021/11/01 05:38:53;;;;;;;68.78;44.85;;;9.30;99.90;;;;;;2105598;28;20036;-73
2021/11/01 05:39:54;;;;;;;62.67;43.15;;;9.20;99.90;;;;;;2105726;28;20027;-75
2021/11/01 05:40:54;;;;;;;59.95;41.55;;;9.20;99.90;;;;;;2106132;28;20096;-76
2021/11/01 05:41:55;;;;;;;67.60;45.35;;;9.20;99.90;;;;;;2105722;28;20028;-74
2021/11/01 05:42:56;;;;;;;76.50;50.20;;;9.20;99.90;;;;;;2106314;28;20032;-76
2021/11/01 05:43:56;;;;;;;73.38;47.30;;;9.20;99.90;;;;;;2106100;28;20062;-74
2021/11/01 05:44:57;;;;;;;61.17;43.20;;;9.30;99.90;;;;;;2106129;28;20016;-76
2021/11/01 05:45:58;;;;;;;66.82;46.42;;;9.20;99.90;;;;;;2106224;28;20430;-75
2021/11/01 05:47:00;;;;;;;67.93;48.95;;;9.30;99.90;;;;;;2106209;28;20035;-74
2021/11/01 05:48:02;;;;;;;64.85;44.45;;;9.30;99.90;;;;;;2106402;28;20471;-74
2021/11/01 05:49:05;;;;;;;64.82;42.97;;;9.30;99.90;;;;;;2106486;28;20502;-74
2021/11/01 05:50:06;;;;;;;61.45;42.58;;;9.30;99.90;;;;;;2105428;28;20082;-75
2021/11/01 05:51:13;;;;;;;61.15;41.55;;;9.30;99.90;;;;;;2106258;28;20760;-74